createdAt,value
2022-10-13T00:01:09.182Z,100237.16
2022-10-13T00:03:38.029Z,100235.59
2022-10-13T00:06:09.362Z,100236.00
2022-10-13T00:08:38.348Z,100236.66
2022-10-13T00:11:11.723Z,100239.50
2022-10-13T00:13:39.833Z,100242.59
2022-10-13T00:16:09.690Z,100242.31
2022-10-13T00:18:37.864Z,100234.59
2022-10-13T00:21:10.137Z,100230.97
2022-10-13T00:23:38.258Z,100230.25
2022-10-13T00:26:07.776Z,100229.09
2022-10-13T00:28:36.319Z,100231.22
2022-10-13T00:31:04.460Z,100219.69
2022-10-13T00:33:32.601Z,100225.41
2022-10-13T00:36:00.696Z,100227.66
2022-10-13T00:38:30.110Z,100224.31
2022-10-13T00:40:58.152Z,100218.31
2022-10-13T00:43:28.342Z,100211.13
2022-10-13T00:45:56.437Z,100223.16
2022-10-13T00:48:28.504Z,100218.94
2022-10-13T00:50:58.298Z,100219.69
2022-10-13T00:53:28.889Z,100214.59
2022-10-13T00:55:58.514Z,100218.00
2022-10-13T00:58:31.323Z,100213.16
2022-10-13T01:00:59.815Z,100216.31
2022-10-13T01:03:28.498Z,100208.97
2022-10-13T01:05:58.565Z,100207.81
2022-10-13T01:08:27.571Z,100211.47
2022-10-13T01:11:10.006Z,100207.84
2022-10-13T01:13:42.643Z,100207.03
2022-10-13T01:16:14.678Z,100203.38
2022-10-13T01:18:48.119Z,100195.94
2022-10-13T01:21:26.837Z,100201.13
2022-10-13T01:24:29.810Z,100202.69
2022-10-13T01:27:05.940Z,100194.34
2022-10-13T01:29:53.310Z,100190.81
2022-10-13T01:32:24.705Z,100198.13
2022-10-13T01:34:56.623Z,100196.19
2022-10-13T01:37:30.552Z,100192.66
2022-10-13T01:40:05.285Z,100200.38
2022-10-13T01:42:37.664Z,100188.13
2022-10-13T01:45:09.657Z,100185.22
2022-10-13T01:47:39.017Z,100184.94
2022-10-13T01:50:08.433Z,100184.44
2022-10-13T01:52:39.754Z,100183.22
2022-10-13T01:55:10.138Z,100181.09
2022-10-13T01:57:39.800Z,100171.19
2022-10-13T02:00:12.177Z,100165.16
2022-10-13T02:02:56.315Z,100172.50
2022-10-13T02:05:32.707Z,100175.44
2022-10-13T02:08:04.699Z,100176.47
2022-10-13T02:10:35.767Z,100170.09
2022-10-13T02:13:04.787Z,100173.25
2022-10-13T02:15:36.848Z,100176.59
2022-10-13T02:18:06.287Z,100176.75
2022-10-13T02:20:34.997Z,100181.97
2022-10-13T02:23:06.162Z,100169.81
2022-10-13T02:25:35.001Z,100172.66
2022-10-13T02:28:03.416Z,100172.81
2022-10-13T02:30:34.825Z,100181.09
2022-10-13T02:33:03.659Z,100176.44
2022-10-13T02:35:33.025Z,100169.00
2022-10-13T02:38:02.204Z,100164.56
2022-10-13T02:40:30.389Z,100173.94
2022-10-13T02:42:58.608Z,100167.56
2022-10-13T02:45:26.755Z,100177.84
2022-10-13T02:47:57.988Z,100174.25
2022-10-13T02:50:26.045Z,100171.53
2022-10-13T02:52:54.629Z,100174.31
2022-10-13T02:55:22.885Z,100168.66
2022-10-13T02:57:57.222Z,100163.81
2022-10-13T03:00:25.403Z,100170.19
2022-10-13T03:02:54.125Z,100171.06
2022-10-13T03:05:23.654Z,100164.84
2022-10-13T03:07:51.773Z,100164.84
2022-10-13T03:10:19.844Z,100168.47
2022-10-13T03:12:51.303Z,100165.06
2022-10-13T03:15:19.369Z,100157.94
2022-10-13T03:17:50.052Z,100164.38
2022-10-13T03:20:18.320Z,100163.16
2022-10-13T03:22:49.888Z,100155.63
2022-10-13T03:25:18.413Z,100160.72
2022-10-13T03:27:46.737Z,100157.16
2022-10-13T03:30:14.946Z,100158.91
2022-10-13T03:32:43.048Z,100172.97
2022-10-13T03:35:11.054Z,100156.50
2022-10-13T03:37:39.098Z,100157.34
2022-10-13T03:40:10.335Z,100155.91
2022-10-13T03:42:38.401Z,100156.72
2022-10-13T03:45:07.283Z,100166.06
2022-10-13T03:47:37.016Z,100152.72
2022-10-13T03:50:06.060Z,100154.81
2022-10-13T03:52:34.307Z,100156.44
2022-10-13T03:55:02.576Z,100155.75
2022-10-13T03:57:32.061Z,100166.06
2022-10-13T04:00:00.165Z,100163.38
2022-10-13T04:02:29.654Z,100149.53
2022-10-13T04:04:59.487Z,100158.09
2022-10-13T04:07:27.617Z,100144.25
2022-10-13T04:09:55.639Z,100151.94
2022-10-13T04:12:24.129Z,100160.25
2022-10-13T04:14:53.674Z,100160.28
2022-10-13T04:17:21.760Z,100153.03
2022-10-13T04:19:49.854Z,100156.81
2022-10-13T04:22:18.342Z,100159.69
2022-10-13T04:24:49.323Z,100155.72
2022-10-13T04:27:19.842Z,100156.16
2022-10-13T04:29:47.956Z,100146.44
2022-10-13T04:32:17.706Z,100150.63
2022-10-13T04:34:45.998Z,100159.53
2022-10-13T04:37:14.051Z,100160.34
2022-10-13T04:39:42.126Z,100163.72
2022-10-13T04:42:10.170Z,100164.22
2022-10-13T04:44:39.386Z,100161.13
2022-10-13T04:47:08.281Z,100162.56
2022-10-13T04:49:37.773Z,100160.09
2022-10-13T04:52:05.872Z,100161.13
2022-10-13T04:54:33.898Z,100162.44
2022-10-13T04:57:01.879Z,100166.13
2022-10-13T04:59:30.414Z,100166.50
2022-10-13T05:01:58.461Z,100165.31
2022-10-13T05:04:26.562Z,100169.75
2022-10-13T05:07:17.003Z,100162.31
2022-10-13T05:09:45.933Z,100163.47
2022-10-13T05:12:14.100Z,100161.66
2022-10-13T05:14:42.142Z,100162.16
2022-10-13T05:17:10.209Z,100164.91
2022-10-13T05:19:38.402Z,100167.38
2022-10-13T05:22:08.039Z,100169.97
2022-10-13T05:24:37.571Z,100174.75
2022-10-13T05:27:06.948Z,100158.69
2022-10-13T05:29:35.077Z,100156.84
2022-10-13T05:32:03.230Z,100163.00
2022-10-13T05:34:31.305Z,100164.19
2022-10-13T05:36:59.572Z,100160.78
2022-10-13T05:39:29.134Z,100159.63
2022-10-13T05:41:57.174Z,100168.44
2022-10-13T05:44:25.206Z,100174.44
2022-10-13T05:46:56.798Z,100165.47
2022-10-13T05:49:24.889Z,100169.16
2022-10-13T05:51:55.584Z,100169.31
2022-10-13T05:54:30.669Z,100180.69
2022-10-13T05:57:00.737Z,100174.78
2022-10-13T05:59:31.643Z,100180.84
2022-10-13T06:01:59.915Z,100183.53
2022-10-13T06:04:33.219Z,100181.25
2022-10-13T06:07:01.469Z,100188.38
2022-10-13T06:09:35.096Z,100188.31
2022-10-13T06:12:03.144Z,100194.16
2022-10-13T06:14:31.426Z,100186.19
2022-10-13T06:16:59.508Z,100189.31
2022-10-13T06:19:27.772Z,100187.28
2022-10-13T06:21:57.971Z,100188.81
2022-10-13T06:24:29.520Z,100194.66
2022-10-13T06:26:58.989Z,100190.31
2022-10-13T06:29:27.265Z,100191.16
2022-10-13T06:31:55.340Z,100188.03
2022-10-13T06:34:23.444Z,100185.28
2022-10-13T06:36:51.512Z,100193.59
2022-10-13T06:39:19.588Z,100184.63
2022-10-13T06:41:48.375Z,100184.88
2022-10-13T06:44:17.871Z,100192.38
2022-10-13T06:46:46.011Z,100196.16
2022-10-13T06:49:14.120Z,100190.91
2022-10-13T06:51:42.241Z,100187.38
2022-10-13T06:54:10.305Z,100184.22
2022-10-13T06:56:38.373Z,100185.75
2022-10-13T06:59:11.851Z,100179.47
2022-10-13T07:01:41.960Z,100183.50
2022-10-13T07:04:14.206Z,100179.13
2022-10-13T07:06:42.499Z,100182.63
2022-10-13T07:09:10.637Z,100177.28
2022-10-13T07:11:38.800Z,100187.91
2022-10-13T07:14:06.857Z,100191.97
2022-10-13T07:16:35.096Z,100177.97
2022-10-13T07:19:05.430Z,100179.72
2022-10-13T07:21:34.259Z,100189.56
2022-10-13T07:24:03.594Z,100188.66
2022-10-13T07:26:33.936Z,100171.31
2022-10-13T07:29:02.198Z,100187.41
2022-10-13T07:31:30.539Z,100185.69
2022-10-13T07:34:00.187Z,100194.31
2022-10-13T07:36:30.883Z,100181.91
2022-10-13T07:38:59.545Z,100174.56
2022-10-13T07:41:27.711Z,100173.28
2022-10-13T07:43:56.976Z,100166.31
2022-10-13T07:46:25.482Z,100173.78
2022-10-13T07:48:54.322Z,100173.84
2022-10-13T07:51:23.432Z,100175.75
2022-10-13T07:53:53.052Z,100178.41
2022-10-13T07:56:22.353Z,100178.66
2022-10-13T07:58:50.473Z,100176.53
2022-10-13T08:01:21.944Z,100170.31
2022-10-13T08:03:51.643Z,100175.53
2022-10-13T08:06:20.554Z,100173.25
2022-10-13T08:08:48.761Z,100181.44
2022-10-13T08:11:19.190Z,100176.63
2022-10-13T08:13:50.628Z,100178.94
2022-10-13T08:16:24.749Z,100180.06
2022-10-13T08:18:53.083Z,100176.22
2022-10-13T08:24:12.628Z,100171.75
2022-10-13T08:26:43.263Z,100174.66
2022-10-13T08:29:26.989Z,100165.13
2022-10-13T08:31:55.636Z,100164.22
2022-10-13T08:34:24.527Z,100168.34
2022-10-13T08:36:54.747Z,100172.50
2022-10-13T08:39:28.600Z,100168.06
2022-10-13T08:42:01.749Z,100171.25
2022-10-13T08:47:36.906Z,100185.31
2022-10-13T08:50:08.784Z,100181.78
2022-10-13T08:52:47.281Z,100178.84
2022-10-13T08:55:21.644Z,100176.94
2022-10-13T08:57:51.163Z,100177.25
2022-10-13T09:00:21.138Z,100182.44
2022-10-13T09:02:51.327Z,100173.88
2022-10-13T09:05:27.987Z,100175.25
2022-10-13T09:08:01.113Z,100167.88
2022-10-13T09:10:29.315Z,100174.72
2022-10-13T09:13:01.145Z,100168.94
2022-10-13T09:15:29.183Z,100170.13
2022-10-13T09:18:10.447Z,100176.28
2022-10-13T09:20:38.714Z,100161.75
2022-10-13T09:23:09.153Z,100168.28
2022-10-13T09:25:41.450Z,100174.38
2022-10-13T09:28:17.364Z,100166.81
2022-10-13T09:30:47.692Z,100167.53
2022-10-13T09:33:21.706Z,100168.28
2022-10-13T09:36:07.554Z,100163.81
2022-10-13T09:38:36.542Z,100162.78
2022-10-13T09:41:06.836Z,100166.84
2022-10-13T09:43:39.597Z,100166.03
2022-10-13T09:46:25.853Z,100168.09
2022-10-13T09:48:55.822Z,100164.28
2022-10-13T09:51:32.200Z,100158.59
2022-10-13T09:54:03.204Z,100160.69
2022-10-13T09:56:37.050Z,100155.88
2022-10-13T09:59:14.131Z,100162.91
2022-10-13T10:01:45.758Z,100165.84
2022-10-13T10:04:17.492Z,100153.78
2022-10-13T10:06:46.817Z,100163.31
2022-10-13T10:09:33.270Z,100155.09
2022-10-13T10:12:02.295Z,100156.25
2022-10-13T10:14:34.010Z,100154.03
2022-10-13T10:17:07.541Z,100154.09
2022-10-13T10:19:49.261Z,100152.22
2022-10-13T10:22:24.009Z,100152.72
2022-10-13T10:24:56.511Z,100152.97
2022-10-13T10:27:27.865Z,100153.41
2022-10-13T10:29:59.719Z,100152.88
2022-10-13T10:32:30.580Z,100144.47
2022-10-13T10:35:01.639Z,100150.78
2022-10-13T10:37:45.037Z,100147.00
2022-10-13T10:40:24.499Z,100144.97
2022-10-13T10:43:09.332Z,100150.78
2022-10-13T10:45:40.473Z,100143.13
2022-10-13T10:48:25.170Z,100143.91
2022-10-13T10:50:54.031Z,100143.69
2022-10-13T10:53:32.583Z,100137.34
2022-10-13T10:56:07.378Z,100144.03
2022-10-13T10:58:40.875Z,100127.69
2022-10-13T11:01:20.353Z,100128.13
2022-10-13T11:03:54.333Z,100130.72
2022-10-13T11:06:26.304Z,100129.84
2022-10-13T11:08:55.797Z,100122.75
2022-10-13T11:11:40.718Z,100118.13
2022-10-13T11:14:30.940Z,100124.72
2022-10-13T11:17:21.285Z,100116.66
2022-10-13T11:19:50.237Z,100120.50
2022-10-13T11:22:23.856Z,100114.88
2022-10-13T11:24:57.380Z,100115.69
2022-10-13T11:27:39.674Z,100104.06
2022-10-13T11:30:57.534Z,100114.09
2022-10-13T11:36:55.313Z,100101.13
2022-10-13T11:40:02.084Z,100093.91
2022-10-13T11:42:58.279Z,100085.63
2022-10-13T11:45:47.391Z,100077.53
2022-10-13T11:48:34.022Z,100068.91
2022-10-13T11:51:13.924Z,100072.16
2022-10-13T11:53:52.895Z,100056.97
2022-10-13T11:56:22.490Z,100059.38
2022-10-13T11:58:50.772Z,100050.94
2022-10-13T12:01:19.544Z,100057.72
2022-10-13T12:03:48.664Z,100051.69
2022-10-13T12:06:33.273Z,100048.28
2022-10-13T12:09:06.103Z,100053.47
2022-10-13T12:11:37.034Z,100045.06
2022-10-13T12:14:19.391Z,100039.84
2022-10-13T12:19:29.341Z,100030.59
2022-10-13T12:21:59.331Z,100030.28
2022-10-13T12:24:30.860Z,100026.75
2022-10-13T12:26:59.840Z,100028.13
2022-10-13T12:29:34.900Z,100022.38
2022-10-13T12:32:18.285Z,100011.13
2022-10-13T12:34:46.383Z,100007.59
2022-10-13T12:37:19.687Z,100011.63
2022-10-13T12:39:49.669Z,100011.66
2022-10-13T12:42:18.483Z,100016.34
2022-10-13T12:44:46.831Z,100007.91
2022-10-13T12:47:39.839Z,100008.22
2022-10-13T12:50:33.080Z,100019.34
2022-10-13T12:53:10.821Z,100006.09
2022-10-13T12:55:55.522Z,99993.00
2022-10-13T12:58:27.096Z,100007.47
2022-10-13T13:01:04.595Z,100005.97
2022-10-13T13:03:32.737Z,100007.97
2022-10-13T13:06:24.939Z,100008.28
2022-10-13T13:09:27.495Z,100000.69
2022-10-13T13:12:24.853Z,99999.56
2022-10-13T13:14:55.203Z,99994.81
2022-10-13T13:17:52.866Z,99986.56
2022-10-13T13:20:23.529Z,99985.38
2022-10-13T13:22:52.009Z,99991.63
2022-10-13T13:25:20.199Z,99992.47
2022-10-13T13:27:49.702Z,99987.25
2022-10-13T13:30:19.096Z,99985.09
2022-10-13T13:32:47.811Z,99981.19
2022-10-13T13:35:16.678Z,99981.38
2022-10-13T13:37:50.510Z,99992.13
2022-10-13T13:40:21.275Z,99978.69
2022-10-13T13:42:50.817Z,99980.19
2022-10-13T13:45:20.711Z,99979.53
2022-10-13T13:47:49.877Z,99969.59
2022-10-13T13:50:20.353Z,99971.94
2022-10-13T13:52:57.331Z,99968.78
2022-10-13T13:55:25.723Z,99965.03
2022-10-13T13:57:55.364Z,99955.47
2022-10-13T14:00:23.981Z,99968.94
2022-10-13T14:02:56.094Z,99958.81
2022-10-13T14:05:24.665Z,99968.94
2022-10-13T14:07:54.837Z,99955.63
2022-10-13T14:10:22.882Z,99961.19
2022-10-13T14:12:50.984Z,99955.47
2022-10-13T14:15:21.659Z,99954.63
2022-10-13T14:17:53.021Z,99952.63
2022-10-13T14:20:21.083Z,99952.78
2022-10-13T14:22:49.231Z,99947.75
2022-10-13T14:25:17.948Z,99945.88
2022-10-13T14:27:46.227Z,99938.47
2022-10-13T14:30:15.285Z,99940.31
2022-10-13T14:32:44.853Z,99936.44
2022-10-13T14:35:13.036Z,99941.81
2022-10-13T14:37:41.122Z,99936.44
2022-10-13T14:40:10.126Z,99929.06
2022-10-13T14:42:39.260Z,99927.19
2022-10-13T14:45:08.445Z,99921.81
2022-10-13T14:47:36.499Z,99934.78
2022-10-13T14:50:06.689Z,99928.38
2022-10-13T14:52:34.793Z,99921.00
2022-10-13T14:55:03.076Z,99924.19
2022-10-13T14:57:31.173Z,99928.03
2022-10-13T15:00:01.823Z,99916.28
2022-10-13T15:02:31.017Z,99920.97
2022-10-13T15:05:08.558Z,99917.97
2022-10-13T15:07:41.120Z,99908.03
2022-10-13T15:10:10.129Z,99918.09
2022-10-13T15:12:38.247Z,99910.03
2022-10-13T15:15:10.842Z,99921.66
2022-10-13T15:17:41.429Z,99916.09
2022-10-13T15:20:19.119Z,99908.34
2022-10-13T15:22:50.117Z,99912.38
2022-10-13T15:25:18.572Z,99913.88
2022-10-13T15:27:47.709Z,99913.03
2022-10-13T15:30:16.583Z,99912.56
2022-10-13T15:32:44.647Z,99902.09
2022-10-13T15:35:13.522Z,99907.13
2022-10-13T15:37:42.848Z,99917.00
2022-10-13T15:40:13.669Z,99902.38
2022-10-13T15:42:41.798Z,99905.75
2022-10-13T15:45:12.079Z,99900.88
2022-10-13T15:47:41.894Z,99902.94
2022-10-13T15:50:10.464Z,99903.19
2022-10-13T15:52:40.839Z,99895.56
2022-10-13T15:55:10.058Z,99908.22
2022-10-13T15:57:39.743Z,99903.44
2022-10-13T16:00:09.226Z,99898.38
2022-10-13T16:02:41.367Z,99904.47
2022-10-13T16:05:10.849Z,99898.69
2022-10-13T16:07:39.962Z,99891.53
2022-10-13T16:10:09.303Z,99900.31
2022-10-13T16:12:43.320Z,99896.00
2022-10-13T16:15:13.741Z,99886.94
2022-10-13T16:17:47.942Z,99895.53
2022-10-13T16:20:16.295Z,99902.34
2022-10-13T16:22:45.817Z,99902.19
2022-10-13T16:25:13.906Z,99896.91
2022-10-13T16:27:44.738Z,99909.00
2022-10-13T16:30:14.025Z,99904.63
2022-10-13T16:32:43.593Z,99887.25
2022-10-13T16:35:11.808Z,99898.94
2022-10-13T16:37:39.869Z,99900.19
2022-10-13T16:40:09.031Z,99898.88
2022-10-13T16:42:37.100Z,99897.50
2022-10-13T16:45:08.279Z,99897.84
2022-10-13T16:47:36.331Z,99900.03
2022-10-13T16:50:06.529Z,99898.69
2022-10-13T16:52:34.663Z,99902.09
2022-10-13T16:55:03.075Z,99897.59
2022-10-13T16:57:31.377Z,99904.84
2022-10-13T16:59:59.422Z,99915.19
2022-10-13T17:02:31.354Z,99907.47
2022-10-13T17:04:59.562Z,99911.31
2022-10-13T17:07:27.799Z,99906.91
2022-10-13T17:09:56.172Z,99907.88
2022-10-13T17:12:24.966Z,99898.59
2022-10-13T17:14:54.519Z,99907.88
2022-10-13T17:17:23.176Z,99905.78
2022-10-13T17:19:52.931Z,99902.53
2022-10-13T17:22:23.830Z,99905.72
2022-10-13T17:24:54.439Z,99898.53
2022-10-13T17:27:23.174Z,99909.66
2022-10-13T17:29:56.013Z,99903.97
2022-10-13T17:32:25.573Z,99899.44
2022-10-13T17:34:58.328Z,99906.34
2022-10-13T17:37:27.606Z,99898.13
2022-10-13T17:39:57.111Z,99905.13
2022-10-13T17:42:27.558Z,99902.59
2022-10-13T17:44:56.935Z,99904.34
2022-10-13T17:47:27.768Z,99902.06
2022-10-13T17:49:58.010Z,99906.25
2022-10-13T17:52:29.437Z,99892.47
2022-10-13T17:54:58.558Z,99894.94
2022-10-13T17:57:31.976Z,99894.16
2022-10-13T18:00:05.634Z,99888.84
2022-10-13T18:02:41.074Z,99889.28
2022-10-13T18:05:11.934Z,99891.94
2022-10-13T18:07:40.991Z,99892.16
2022-10-13T18:10:11.115Z,99885.13
2022-10-13T18:12:40.394Z,99883.97
2022-10-13T18:15:13.625Z,99881.00
2022-10-13T18:17:42.545Z,99881.88
2022-10-13T18:20:13.686Z,99882.34
2022-10-13T18:22:45.477Z,99883.97
2022-10-13T18:25:15.684Z,99885.91
2022-10-13T18:27:45.454Z,99886.47
2022-10-13T18:30:19.957Z,99886.91
2022-10-13T18:32:51.327Z,99890.75
2022-10-13T18:35:21.675Z,99891.72
2022-10-13T18:37:53.024Z,99889.81
2022-10-13T18:40:22.651Z,99894.81
2022-10-13T18:42:54.954Z,99895.97
2022-10-13T18:45:26.728Z,99898.78
2022-10-13T18:47:55.771Z,99895.94
2022-10-13T18:50:27.186Z,99895.81
2022-10-13T18:52:56.612Z,99895.28
2022-10-13T18:55:27.090Z,99895.13
2022-10-13T18:57:56.357Z,99899.09
2022-10-13T19:00:25.745Z,99892.59
2022-10-13T19:02:55.113Z,99894.13
2022-10-13T19:05:27.066Z,99887.91
2022-10-13T19:07:59.212Z,99891.91
2022-10-13T19:10:28.709Z,99893.13
2022-10-13T19:12:58.003Z,99891.44
2022-10-13T19:15:27.597Z,99885.38
2022-10-13T19:18:01.879Z,99890.53
2022-10-13T19:20:32.790Z,99895.28
2022-10-13T19:23:06.641Z,99895.03
2022-10-13T19:25:36.171Z,99900.41
2022-10-13T19:28:06.351Z,99894.56
2022-10-13T19:30:35.887Z,99887.84
2022-10-13T19:33:05.388Z,99890.06
2022-10-13T19:35:43.641Z,99896.41
2022-10-13T19:38:13.823Z,99891.34
2022-10-13T19:40:44.230Z,99893.28
2022-10-13T19:43:15.047Z,99891.13
2022-10-13T19:45:47.204Z,99885.84
2022-10-13T19:48:17.342Z,99886.69
2022-10-13T19:50:53.560Z,99884.56
2022-10-13T19:53:28.356Z,99879.09
2022-10-13T19:55:58.034Z,99863.72
2022-10-13T19:58:28.810Z,99869.91
2022-10-13T20:01:00.108Z,99864.34
2022-10-13T20:03:29.631Z,99856.91
2022-10-13T20:06:05.903Z,99862.66
2022-10-13T20:08:41.613Z,99860.81
2022-10-13T20:11:11.758Z,99867.19
2022-10-13T20:13:40.581Z,99863.72
2022-10-13T20:16:11.241Z,99863.63
2022-10-13T20:18:39.593Z,99869.91
2022-10-13T20:21:11.993Z,99869.69
2022-10-13T20:23:40.894Z,99871.22
2022-10-13T20:26:10.482Z,99867.78
2022-10-13T20:28:43.189Z,99865.78
2022-10-13T20:31:12.884Z,99858.28
2022-10-13T20:33:41.701Z,99864.09
2022-10-13T20:36:13.688Z,99872.06
2022-10-13T20:38:41.869Z,99871.94
2022-10-13T20:41:17.673Z,99871.53
2022-10-13T20:43:45.808Z,99876.69
2022-10-13T20:46:14.524Z,99869.00
2022-10-13T20:49:11.461Z,99865.72
2022-10-13T20:51:33.067Z,99867.53
2022-10-13T20:54:01.174Z,99858.06
2022-10-13T20:56:29.225Z,99865.16
2022-10-13T20:58:57.296Z,99866.00
2022-10-13T21:01:25.370Z,99865.53
2022-10-13T21:03:53.849Z,99861.94
2022-10-13T21:06:23.267Z,99864.91
2022-10-13T21:08:53.218Z,99854.28
2022-10-13T21:11:22.583Z,99860.88
2022-10-13T21:13:51.706Z,99852.59
2022-10-13T21:16:21.716Z,99853.75
2022-10-13T21:18:51.134Z,99846.22
2022-10-13T21:21:20.943Z,99841.72
2022-10-13T21:23:54.380Z,99837.38
2022-10-13T21:26:23.395Z,99833.69
2022-10-13T21:28:52.253Z,99843.38
2022-10-13T21:31:22.146Z,99836.78
2022-10-13T21:33:51.315Z,99843.66
2022-10-13T21:36:21.273Z,99834.09
2022-10-13T21:38:53.520Z,99836.38
2022-10-13T21:41:22.274Z,99834.84
2022-10-13T21:43:50.644Z,99833.94
2022-10-13T21:46:20.664Z,99834.31
2022-10-13T21:48:54.572Z,99834.78
2022-10-13T21:51:24.342Z,99841.84
2022-10-13T21:53:55.147Z,99836.19
2022-10-13T21:56:23.890Z,99831.63
2022-10-13T21:58:52.000Z,99833.94
2022-10-13T22:01:20.539Z,99837.31
2022-10-13T22:03:49.659Z,99833.53
2022-10-13T22:06:21.424Z,99833.16
2022-10-13T22:08:51.062Z,99828.03
2022-10-13T22:11:29.422Z,99815.66
2022-10-13T22:13:57.669Z,99810.91
2022-10-13T22:16:27.759Z,99819.00
2022-10-13T22:18:57.167Z,99809.84
2022-10-13T22:21:27.362Z,99809.91
2022-10-13T22:23:57.915Z,99801.94
2022-10-13T22:26:28.175Z,99809.84
2022-10-13T22:28:57.734Z,99804.94
2022-10-13T22:31:25.925Z,99800.72
2022-10-13T22:33:54.020Z,99800.72
2022-10-13T22:36:23.610Z,99809.06
2022-10-13T22:38:53.426Z,99815.34
2022-10-13T22:41:21.965Z,99798.28
2022-10-13T22:43:52.471Z,99801.97
2022-10-13T22:46:22.637Z,99807.53
2022-10-13T22:48:51.068Z,99807.00
2022-10-13T22:51:20.705Z,99807.47
2022-10-13T22:53:49.876Z,99807.53
2022-10-13T22:56:19.973Z,99801.88
2022-10-13T22:58:52.608Z,99802.09
2022-10-13T23:01:21.248Z,99807.47
2022-10-13T23:03:49.959Z,99811.97
2022-10-13T23:06:19.412Z,99801.66
2022-10-13T23:08:47.657Z,99811.56
2022-10-13T23:11:16.017Z,99806.16
2022-10-13T23:13:44.246Z,99810.25
2022-10-13T23:16:15.549Z,99804.16
2022-10-13T23:18:43.997Z,99801.84
2022-10-13T23:21:26.694Z,99793.81
2022-10-13T23:23:58.877Z,99795.28
2022-10-13T23:26:27.353Z,99790.44
2022-10-13T23:28:56.327Z,99788.31
2022-10-13T23:31:26.719Z,99791.00
2022-10-13T23:33:55.261Z,99784.72
2022-10-13T23:36:25.751Z,99788.72
2022-10-13T23:38:58.405Z,99793.38
2022-10-13T23:41:26.836Z,99788.91
2022-10-13T23:43:54.896Z,99789.00
2022-10-13T23:46:23.063Z,99793.38
2022-10-13T23:48:52.747Z,99791.59
2022-10-13T23:51:23.144Z,99787.31
2022-10-13T23:53:51.525Z,99785.94
2022-10-13T23:56:20.118Z,99792.00
2022-10-13T23:58:48.248Z,99783.72
